Terminal Aerodrome Forecast
Issued by NWS Cleveland, OH

Home | Current Version | Previous Version | Graphics & Text | Print | Product List | Glossary Off
Versions: 1 2 3 4 5 6 7 8 9 10 11 12 13 14 15

387
FTUS41 KCLE 221513 AAB
TAFTOL
TAF AMD
KTOL 221513Z 2215/2312 24015KT P6SM VCSH BKN015 BKN020 OVC100
     FM221700 24015G25KT P6SM VCTS BKN020CB OVC040
      TEMPO 2219/2221 5SM -TSRA BKN030CB OVC040
     FM222100 27015G25KT P6SM VCSH BKN040 BKN080
     FM222300 29011KT P6SM FEW040 SCT100
     FM230300 30007KT P6SM SKC=

USA.gov is the U.S. government's official web portal to all federal, state and local government web resources and services.